Home > Products > Valid Products > TAF

000
FTUS43 KTOP 012300
TAFTOP
TAF
KTOP 012320Z 0200/0224 09005KT P6SM FEW050=



000
FTUS43 KTOP 011700
TAFTOP
TAF
KTOP 011732Z 0118/0218 14008KT P6SM FEW100
     FM012300 09005KT P6SM FEW100=



000
FTUS43 KTOP 011100
TAFTOP
TAF
KTOP 011120Z 0112/0212 15005KT P6SM BKN100
     FM020000 09003KT P6SM SCT100=



000
FTUS43 KTOP 010500
TAFTOP
TAF
KTOP 010520Z 0106/0206 10004KT P6SM FEW100 SCT250
     FM010800 14003KT P6SM VCTS BKN100CB
     FM011400 15003KT P6SM SCT250=



000
FTUS43 KTOP 312300
TAFTOP
TAF
KTOP 312333Z 0100/0124 09004KT P6SM FEW050 SCT250
     FM010800 14003KT P6SM VCTS BKN100CB
     FM011500 15003KT P6SM SCT250=



000
FTUS43 KTOP 311700
TAFTOP
TAF
KTOP 311729Z 3118/0118 09004KT P6SM SCT050 SCT250
     FM010300 14003KT P6SM BKN100=



000
FTUS43 KTOP 311100
TAFTOP
TAF
KTOP 311120Z 3112/0112 09004KT P6SM FEW050 SCT250=



000
FTUS43 KTOP 310500
TAFTOP
TAF
KTOP 310520Z 3106/0106 VRB04KT P6SM FEW060 SCT250=



000
FTUS43 KTOP 302300
TAFTOP
TAF
KTOP 302320Z 3100/3124 VRB04KT P6SM FEW060 SCT250=



000
FTUS43 KTOP 301700
TAFTOP
TAF
KTOP 301729Z 3018/3118 04005KT P6SM SCT050 BKN150
     FM302300 VRB02KT P6SM FEW050 SCT250=



000
FTUS43 KTOP 301100
TAFTOP
TAF
KTOP 301121Z 3012/3112 03003KT P6SM VCSH BKN070
     FM301500 04005KT P6SM BKN090=



000
FTUS43 KTOP 300500
TAFTOP
TAF
KTOP 300520Z 3006/3106 03002KT P6SM SCT070
     FM301100 04003KT P6SM BKN090=



    US Dept of Commerce
    National Oceanic and Atmospheric Administration
    National Weather Service
    1325 East West Highway
    Silver Spring, MD 20910
    Page Author: NWS Internet Services Team
Disclaimer
Information Quality
Credits
Glossary
Privacy Policy
Freedom of Information Act (FOIA)
About Us
Career Opportunities